createdAt,value
2024-03-15T00:01:10.764Z,82.97
2024-03-15T00:03:38.741Z,82.73
2024-03-15T00:06:06.971Z,82.87
2024-03-15T00:08:34.917Z,82.89
2024-03-15T00:11:05.746Z,83.13
2024-03-15T00:13:35.674Z,82.87
2024-03-15T00:16:05.146Z,82.48
2024-03-15T00:18:34.927Z,82.76
2024-03-15T00:21:03.280Z,82.62
2024-03-15T00:23:31.274Z,83.25
2024-03-15T00:26:00.417Z,82.78
2024-03-15T00:28:28.607Z,83.10
2024-03-15T00:30:56.558Z,83.13
2024-03-15T00:33:24.620Z,82.87
2024-03-15T00:35:52.909Z,83.38
2024-03-15T00:38:20.892Z,82.72
2024-03-15T00:40:48.779Z,82.91
2024-03-15T00:43:17.995Z,83.12
2024-03-15T00:45:46.233Z,83.20
2024-03-15T00:48:14.309Z,83.03
2024-03-15T00:50:44.467Z,82.81
2024-03-15T00:53:13.825Z,82.83
2024-03-15T00:55:41.785Z,83.60
2024-03-15T00:58:09.715Z,82.83
2024-03-15T01:00:37.674Z,83.49
2024-03-15T01:03:05.769Z,83.28
2024-03-15T01:05:33.752Z,83.01
2024-03-15T01:08:01.687Z,83.69
2024-03-15T01:10:32.328Z,83.43
2024-03-15T01:13:00.469Z,83.25
2024-03-15T01:15:28.421Z,83.51
2024-03-15T01:17:56.401Z,83.60
2024-03-15T01:20:24.728Z,83.14
2024-03-15T01:22:52.652Z,83.30
2024-03-15T01:25:20.532Z,83.90
2024-03-15T01:27:48.508Z,83.13
2024-03-15T01:30:16.884Z,83.64
2024-03-15T01:32:45.494Z,83.45
2024-03-15T01:35:13.445Z,83.29
2024-03-15T01:37:42.191Z,84.08
2024-03-15T01:40:10.718Z,83.21
2024-03-15T01:42:38.664Z,84.00
2024-03-15T01:45:08.305Z,83.90
2024-03-15T01:47:36.340Z,83.61
2024-03-15T01:50:08.605Z,83.92
2024-03-15T01:52:37.004Z,84.10
2024-03-15T01:55:05.177Z,83.97
2024-03-15T01:57:33.153Z,84.10
2024-03-15T02:00:01.070Z,84.02
2024-03-15T02:02:29.030Z,84.23
2024-03-15T02:04:56.975Z,84.29
2024-03-15T02:07:28.809Z,84.49
2024-03-15T02:09:57.025Z,84.08
2024-03-15T02:12:25.361Z,84.25
2024-03-15T02:14:53.322Z,83.88
2024-03-15T02:17:22.136Z,84.44
2024-03-15T02:19:50.079Z,84.70
2024-03-15T02:22:18.038Z,84.20
2024-03-15T02:24:46.208Z,84.33
2024-03-15T02:27:15.690Z,84.34
2024-03-15T02:29:43.617Z,84.49
2024-03-15T02:32:11.633Z,84.15
2024-03-15T02:34:39.752Z,84.65
2024-03-15T02:37:08.587Z,84.48
2024-03-15T02:39:36.865Z,84.55
2024-03-15T02:42:06.837Z,84.27
2024-03-15T02:44:34.903Z,84.29
2024-03-15T02:47:04.505Z,84.68
2024-03-15T02:49:32.476Z,84.75
2024-03-15T02:52:00.464Z,84.36
2024-03-15T02:54:29.753Z,84.70
2024-03-15T02:56:57.835Z,85.00
2024-03-15T02:59:26.785Z,84.34
2024-03-15T03:01:54.782Z,84.94
2024-03-15T03:04:24.008Z,85.00
2024-03-15T03:06:52.142Z,85.00
2024-03-15T03:09:22.031Z,84.46
2024-03-15T03:11:50.088Z,85.24
2024-03-15T03:14:18.140Z,84.63
2024-03-15T03:16:46.166Z,85.00
2024-03-15T03:19:18.188Z,84.97
2024-03-15T03:21:47.272Z,85.24
2024-03-15T03:24:16.468Z,84.83
2024-03-15T03:26:44.660Z,84.71
2024-03-15T03:29:13.313Z,85.19
2024-03-15T03:31:41.298Z,85.19
2024-03-15T03:34:09.413Z,85.25
2024-03-15T03:36:38.296Z,84.85
2024-03-15T03:39:07.288Z,85.12
2024-03-15T03:41:35.618Z,85.18
2024-03-15T03:44:04.355Z,85.30
2024-03-15T03:46:35.074Z,85.36
2024-03-15T03:49:03.137Z,85.25
2024-03-15T03:51:31.173Z,85.71
2024-03-15T03:53:59.154Z,85.39
2024-03-15T03:56:27.915Z,85.03
2024-03-15T03:58:55.891Z,85.58
2024-03-15T04:01:23.815Z,85.27
2024-03-15T04:03:51.869Z,85.18
2024-03-15T04:06:19.970Z,85.23
2024-03-15T04:08:49.818Z,85.41
2024-03-15T04:11:17.846Z,85.68
2024-03-15T04:13:45.742Z,85.65
2024-03-15T04:16:13.779Z,85.67
2024-03-15T04:18:41.948Z,85.53
2024-03-15T04:21:11.822Z,85.84
2024-03-15T04:23:39.846Z,85.36
2024-03-15T04:26:07.776Z,85.54
2024-03-15T04:28:36.041Z,85.87
2024-03-15T04:31:06.575Z,85.80
2024-03-15T04:33:36.931Z,85.55
2024-03-15T04:36:06.673Z,85.51
2024-03-15T04:38:34.715Z,85.72
2024-03-15T04:41:10.748Z,86.03
2024-03-15T04:43:39.032Z,86.08
2024-03-15T04:46:08.892Z,86.11
2024-03-15T04:48:38.285Z,86.18
2024-03-15T04:51:06.493Z,85.99
2024-03-15T04:53:34.463Z,86.02
2024-03-15T04:56:03.310Z,86.33
2024-03-15T04:58:33.042Z,86.15
2024-03-15T05:01:02.320Z,85.86
2024-03-15T05:03:30.445Z,86.05
2024-03-15T05:05:58.884Z,85.74
2024-03-15T05:08:27.833Z,85.86
2024-03-15T05:10:56.218Z,85.93
2024-03-15T05:13:24.214Z,86.01
2024-03-15T05:15:52.461Z,86.42
2024-03-15T05:18:20.515Z,86.27
2024-03-15T05:20:49.766Z,86.17
2024-03-15T05:23:18.550Z,85.93
2024-03-15T05:25:48.494Z,86.02
2024-03-15T05:28:17.881Z,86.35
2024-03-15T05:30:45.908Z,86.50
2024-03-15T05:33:14.093Z,85.99
2024-03-15T05:35:42.550Z,86.32
2024-03-15T05:38:11.570Z,86.80
2024-03-15T05:40:39.497Z,86.46
2024-03-15T05:43:07.425Z,86.34
2024-03-15T05:45:35.402Z,86.25
2024-03-15T05:48:04.288Z,86.52
2024-03-15T05:50:33.671Z,86.26
2024-03-15T05:53:01.684Z,86.43
2024-03-15T05:55:29.599Z,86.57
2024-03-15T05:57:57.581Z,86.93
2024-03-15T06:00:25.560Z,86.52
2024-03-15T06:02:53.661Z,86.54
2024-03-15T06:05:23.341Z,86.49
2024-03-15T06:07:53.558Z,86.94
2024-03-15T06:10:22.071Z,86.48
2024-03-15T06:12:51.886Z,86.50
2024-03-15T06:15:20.554Z,86.52
2024-03-15T06:17:48.544Z,86.64
2024-03-15T06:20:16.598Z,86.83
2024-03-15T06:22:45.366Z,87.32
2024-03-15T06:25:13.619Z,87.38
2024-03-15T06:27:42.379Z,86.84
2024-03-15T06:30:13.711Z,87.22
2024-03-15T06:32:41.887Z,87.26
2024-03-15T06:35:23.731Z,86.83
2024-03-15T06:37:55.606Z,87.27
2024-03-15T06:40:32.313Z,87.16
2024-03-15T06:43:15.148Z,87.08
2024-03-15T06:45:58.502Z,87.01
2024-03-15T06:48:34.505Z,87.07
2024-03-15T06:51:22.723Z,87.09
2024-03-15T06:53:49.656Z,87.39
2024-03-15T06:56:17.583Z,87.44
2024-03-15T06:58:45.536Z,87.57
2024-03-15T07:01:13.969Z,87.68
2024-03-15T07:03:41.947Z,87.64
2024-03-15T07:06:10.204Z,87.65
2024-03-15T07:08:38.826Z,87.67
2024-03-15T07:11:06.831Z,87.64
2024-03-15T07:13:34.780Z,87.81
2024-03-15T07:16:03.798Z,87.62
2024-03-15T07:18:31.826Z,87.84
2024-03-15T07:20:59.820Z,87.64
2024-03-15T07:23:28.775Z,88.04
2024-03-15T07:25:56.737Z,87.83
2024-03-15T07:28:24.860Z,87.89
2024-03-15T07:30:52.957Z,87.74
2024-03-15T07:33:21.659Z,88.09
2024-03-15T07:35:49.710Z,87.95
2024-03-15T07:38:18.537Z,87.78
2024-03-15T07:40:46.463Z,87.95
2024-03-15T07:43:14.434Z,87.77
2024-03-15T07:45:42.513Z,88.09
2024-03-15T07:48:10.865Z,87.81
2024-03-15T07:50:40.688Z,88.48
2024-03-15T07:53:09.403Z,87.94
2024-03-15T07:55:37.446Z,88.03
2024-03-15T07:58:05.559Z,87.90
2024-03-15T08:00:33.567Z,88.35
2024-03-15T08:03:01.475Z,88.20
2024-03-15T08:05:30.609Z,88.18
2024-03-15T08:07:58.910Z,88.05
2024-03-15T08:10:27.539Z,88.00
2024-03-15T08:12:56.501Z,88.27
2024-03-15T08:15:27.221Z,88.39
2024-03-15T08:17:55.278Z,88.36
2024-03-15T08:20:23.993Z,88.19
2024-03-15T08:22:52.197Z,87.85
2024-03-15T08:25:20.271Z,87.94
2024-03-15T08:27:50.362Z,88.05
2024-03-15T08:30:19.565Z,87.94
2024-03-15T08:32:47.655Z,88.17
2024-03-15T08:35:17.674Z,88.21
2024-03-15T08:37:45.758Z,87.94
2024-03-15T08:40:15.640Z,87.98
2024-03-15T08:42:46.821Z,88.19
2024-03-15T08:45:16.291Z,87.90
2024-03-15T08:47:55.098Z,88.03
2024-03-15T08:50:33.619Z,87.91
2024-03-15T08:53:04.044Z,87.77
2024-03-15T08:55:32.328Z,87.82
2024-03-15T08:58:00.412Z,87.95
2024-03-15T09:00:28.807Z,87.78
2024-03-15T09:02:56.871Z,87.83
2024-03-15T09:05:24.790Z,87.82
2024-03-15T09:07:52.863Z,87.76
2024-03-15T09:10:20.879Z,87.75
2024-03-15T09:12:49.468Z,87.70
2024-03-15T09:15:19.066Z,87.78
2024-03-15T09:17:48.207Z,87.45
2024-03-15T09:20:20.636Z,87.70
2024-03-15T09:22:50.122Z,87.49
2024-03-15T09:25:20.596Z,87.53
2024-03-15T09:27:50.465Z,87.40
2024-03-15T09:30:19.718Z,87.36
2024-03-15T09:32:49.988Z,87.62
2024-03-15T09:35:18.422Z,87.33
2024-03-15T09:37:51.185Z,87.56
2024-03-15T09:40:19.915Z,87.44
2024-03-15T09:42:49.923Z,87.68
2024-03-15T09:45:18.634Z,87.60
2024-03-15T09:47:46.973Z,87.41
2024-03-15T09:50:17.419Z,87.51
2024-03-15T09:52:45.545Z,87.25
2024-03-15T09:55:14.832Z,87.21
2024-03-15T09:57:44.691Z,87.48
2024-03-15T10:00:16.093Z,87.52
2024-03-15T10:02:45.631Z,87.28
2024-03-15T10:05:13.764Z,87.53
2024-03-15T10:07:41.708Z,87.54
2024-03-15T10:10:11.575Z,87.46
2024-03-15T10:12:40.981Z,87.31
2024-03-15T10:15:10.526Z,87.57
2024-03-15T10:17:40.220Z,87.27
2024-03-15T10:20:13.226Z,87.40
2024-03-15T10:22:41.542Z,87.23
2024-03-15T10:25:13.341Z,87.29
2024-03-15T10:27:41.388Z,87.38
2024-03-15T10:30:11.847Z,87.19
2024-03-15T10:32:39.925Z,87.20
2024-03-15T10:35:08.161Z,87.13
2024-03-15T10:37:36.087Z,87.13
2024-03-15T10:40:06.410Z,87.00
2024-03-15T10:42:34.453Z,87.03
2024-03-15T10:45:02.425Z,87.08
2024-03-15T10:47:30.700Z,87.09
2024-03-15T10:49:58.775Z,86.89
2024-03-15T10:52:26.763Z,86.90
2024-03-15T10:54:54.743Z,86.88
2024-03-15T10:57:22.769Z,86.92
2024-03-15T10:59:50.820Z,86.94
2024-03-15T11:02:18.808Z,86.78
2024-03-15T11:04:46.918Z,86.70
2024-03-15T11:07:16.305Z,86.85
2024-03-15T11:09:44.853Z,86.74
2024-03-15T11:12:13.160Z,86.78
2024-03-15T11:14:42.904Z,86.43
2024-03-15T11:17:10.958Z,86.72
2024-03-15T11:19:42.888Z,86.47
2024-03-15T11:22:20.661Z,86.29
2024-03-15T11:24:51.727Z,86.42
2024-03-15T11:27:19.917Z,86.45
2024-03-15T11:29:49.841Z,86.17
2024-03-15T11:32:17.949Z,86.17
2024-03-15T11:34:46.091Z,86.07
2024-03-15T11:37:15.072Z,86.11
2024-03-15T11:39:44.658Z,85.91
2024-03-15T11:42:12.682Z,85.76
2024-03-15T11:44:40.674Z,85.76
2024-03-15T11:47:08.928Z,85.74
2024-03-15T11:49:36.878Z,85.84
2024-03-15T11:52:05.118Z,85.75
2024-03-15T11:54:34.130Z,85.59
2024-03-15T11:57:05.124Z,85.55
2024-03-15T11:59:35.153Z,85.60
2024-03-15T12:02:04.724Z,85.60
2024-03-15T12:04:33.690Z,85.36
2024-03-15T12:07:01.996Z,85.40
2024-03-15T12:09:30.681Z,85.49
2024-03-15T12:11:58.779Z,85.32
2024-03-15T12:14:26.782Z,85.12
2024-03-15T12:16:54.763Z,85.19
2024-03-15T12:19:22.884Z,85.22
2024-03-15T12:21:50.976Z,85.01
2024-03-15T12:24:19.124Z,85.01
2024-03-15T12:26:47.287Z,84.92
2024-03-15T12:29:15.215Z,84.85
2024-03-15T12:31:43.217Z,84.80
2024-03-15T12:34:11.488Z,84.90
2024-03-15T12:36:39.593Z,84.63
2024-03-15T12:39:10.601Z,84.63
2024-03-15T12:41:42.513Z,84.53
2024-03-15T12:44:10.495Z,84.43
2024-03-15T12:46:38.397Z,84.52
2024-03-15T12:49:06.422Z,84.33
2024-03-15T12:51:34.403Z,84.13
2024-03-15T12:54:02.410Z,84.17
2024-03-15T12:56:30.298Z,84.12
2024-03-15T12:58:58.246Z,84.03
2024-03-15T13:01:26.391Z,84.04
2024-03-15T13:03:54.543Z,83.94
2024-03-15T13:06:22.568Z,83.85
2024-03-15T13:08:52.687Z,83.75
2024-03-15T13:11:21.366Z,83.78
2024-03-15T13:13:49.639Z,83.49
2024-03-15T13:16:17.589Z,83.59
2024-03-15T13:18:45.535Z,83.46
2024-03-15T13:21:13.803Z,83.37
2024-03-15T13:23:42.118Z,83.32
2024-03-15T13:26:10.165Z,83.37
2024-03-15T13:28:38.523Z,83.29
2024-03-15T13:31:06.499Z,83.11
2024-03-15T13:33:40.228Z,83.05
2024-03-15T13:36:10.278Z,83.01
2024-03-15T13:38:39.725Z,83.08
2024-03-15T13:41:07.838Z,82.89
2024-03-15T13:43:35.789Z,82.86
2024-03-15T13:46:06.930Z,82.78
2024-03-15T13:48:35.196Z,82.81
2024-03-15T13:51:03.203Z,82.87
2024-03-15T13:53:31.153Z,82.78
2024-03-15T13:55:59.475Z,82.87
2024-03-15T13:58:27.377Z,82.75
2024-03-15T14:00:57.492Z,82.89
2024-03-15T14:03:25.534Z,82.80
2024-03-15T14:05:53.466Z,82.87
2024-03-15T14:08:21.850Z,82.77
2024-03-15T14:10:49.888Z,82.82
2024-03-15T14:13:19.632Z,82.87
2024-03-15T14:15:48.400Z,82.84
2024-03-15T14:18:17.086Z,82.63
2024-03-15T14:20:46.526Z,82.73
2024-03-15T14:23:14.730Z,82.67
2024-03-15T14:25:44.015Z,82.76
2024-03-15T14:28:12.002Z,82.77
2024-03-15T14:30:40.254Z,82.76
2024-03-15T14:33:09.591Z,82.50
2024-03-15T14:35:38.080Z,82.69
2024-03-15T14:38:09.543Z,82.64
2024-03-15T14:40:39.530Z,82.80
2024-03-15T14:43:09.574Z,82.41
2024-03-15T14:45:38.695Z,82.53
2024-03-15T14:48:14.597Z,82.57
2024-03-15T14:50:44.243Z,82.52
2024-03-15T14:53:15.642Z,82.48
2024-03-15T14:55:45.204Z,82.46
2024-03-15T14:58:14.828Z,82.34
2024-03-15T15:00:45.148Z,82.27
2024-03-15T15:03:13.729Z,82.34
2024-03-15T15:05:41.818Z,82.24
2024-03-15T15:08:11.471Z,82.10
2024-03-15T15:10:40.629Z,82.01
2024-03-15T15:13:10.543Z,82.02
2024-03-15T15:15:39.665Z,82.11
2024-03-15T15:18:08.695Z,82.18
2024-03-15T15:20:36.792Z,82.08
2024-03-15T15:23:07.302Z,81.88
2024-03-15T15:25:36.560Z,82.03
2024-03-15T15:28:05.717Z,81.69
2024-03-15T15:30:34.534Z,81.80
2024-03-15T15:33:03.019Z,81.76
2024-03-15T15:35:31.141Z,81.69
2024-03-15T15:37:59.763Z,81.58
2024-03-15T15:40:31.085Z,81.47
2024-03-15T15:43:00.817Z,81.53
2024-03-15T15:45:33.097Z,81.52
2024-03-15T15:48:02.290Z,81.47
2024-03-15T15:50:30.883Z,81.38
2024-03-15T15:52:58.902Z,81.17
2024-03-15T15:55:27.307Z,81.29
2024-03-15T15:57:56.454Z,81.15
2024-03-15T16:00:25.722Z,81.07
2024-03-15T16:02:54.406Z,81.12
2024-03-15T16:05:22.506Z,81.05
2024-03-15T16:07:50.453Z,81.06
2024-03-15T16:10:19.032Z,81.04
2024-03-15T16:12:47.832Z,80.87
2024-03-15T16:15:16.098Z,80.78
2024-03-15T16:17:44.160Z,80.83
2024-03-15T16:20:14.387Z,80.68
2024-03-15T16:22:42.477Z,80.78
2024-03-15T16:25:10.719Z,80.70
2024-03-15T16:27:38.871Z,80.66
2024-03-15T16:30:08.349Z,80.65
2024-03-15T16:32:36.618Z,80.48
2024-03-15T16:35:08.671Z,80.66
2024-03-15T16:37:37.270Z,80.42
2024-03-15T16:40:08.273Z,80.46
2024-03-15T16:42:37.349Z,80.38
2024-03-15T16:45:07.070Z,80.40
2024-03-15T16:47:35.595Z,80.24
2024-03-15T16:50:05.120Z,80.34
2024-03-15T16:52:34.183Z,80.30
2024-03-15T16:55:02.190Z,80.26
2024-03-15T16:57:30.144Z,80.08
2024-03-15T16:59:58.120Z,80.25
2024-03-15T17:02:27.035Z,80.10
2024-03-15T17:04:55.001Z,80.11
2024-03-15T17:07:23.054Z,80.11
2024-03-15T17:09:52.173Z,80.07
2024-03-15T17:12:20.232Z,79.99
2024-03-15T17:14:48.196Z,80.01
2024-03-15T17:17:16.652Z,80.04
2024-03-15T17:19:45.527Z,80.07
2024-03-15T17:22:13.611Z,79.88
2024-03-15T17:24:41.637Z,79.80
2024-03-15T17:27:09.793Z,79.83
2024-03-15T17:29:37.717Z,79.78
2024-03-15T17:32:05.896Z,79.71
2024-03-15T17:34:34.375Z,79.81
2024-03-15T17:37:03.200Z,79.73
2024-03-15T17:39:33.103Z,79.67
2024-03-15T17:42:01.182Z,79.59
2024-03-15T17:44:29.964Z,79.58
2024-03-15T17:46:58.495Z,79.64
2024-03-15T17:49:26.499Z,79.42
2024-03-15T17:51:54.541Z,79.61
2024-03-15T17:54:24.933Z,79.60
2024-03-15T17:56:52.967Z,79.56
2024-03-15T17:59:20.867Z,79.51
2024-03-15T18:01:48.810Z,79.44
2024-03-15T18:04:16.744Z,79.42
2024-03-15T18:06:44.929Z,79.41
2024-03-15T18:09:13.801Z,79.36
2024-03-15T18:11:41.884Z,79.19
2024-03-15T18:14:10.110Z,79.49
2024-03-15T18:16:38.082Z,79.30
2024-03-15T18:19:06.069Z,79.48
2024-03-15T18:21:34.085Z,79.06
2024-03-15T18:24:02.055Z,79.30
2024-03-15T18:26:30.540Z,79.31
2024-03-15T18:28:58.516Z,79.60
2024-03-15T18:31:26.812Z,79.06
2024-03-15T18:33:54.825Z,79.23
2024-03-15T18:36:26.436Z,79.15
2024-03-15T18:38:55.371Z,79.39
2024-03-15T18:41:23.425Z,79.71
2024-03-15T18:43:51.528Z,79.13
2024-03-15T18:46:19.490Z,79.39
2024-03-15T18:48:47.521Z,79.30
2024-03-15T18:51:15.497Z,79.38
2024-03-15T18:53:43.422Z,79.40
2024-03-15T18:56:11.355Z,79.45
2024-03-15T18:58:39.307Z,79.93
2024-03-15T19:01:11.090Z,79.74
2024-03-15T19:03:39.873Z,79.53
2024-03-15T19:06:08.162Z,79.78
2024-03-15T19:08:36.402Z,79.97
2024-03-15T19:11:04.662Z,80.15
2024-03-15T19:13:32.689Z,79.79
2024-03-15T19:16:00.766Z,79.86
2024-03-15T19:18:28.861Z,80.36
2024-03-15T19:20:56.994Z,80.29
2024-03-15T19:23:25.321Z,80.44
2024-03-15T19:25:53.681Z,80.57
2024-03-15T19:28:21.608Z,80.60
2024-03-15T19:30:50.036Z,80.29
2024-03-15T19:33:18.148Z,80.76
2024-03-15T19:35:46.249Z,80.39
2024-03-15T19:38:15.068Z,80.97
2024-03-15T19:40:44.310Z,80.63
2024-03-15T19:43:14.759Z,80.75
2024-03-15T19:45:43.684Z,80.72
2024-03-15T19:48:13.554Z,81.17
2024-03-15T19:50:42.162Z,80.68
2024-03-15T19:53:11.019Z,81.14
2024-03-15T19:55:39.660Z,81.43
2024-03-15T19:58:07.690Z,81.57
2024-03-15T20:00:35.896Z,81.39
2024-03-15T20:03:03.900Z,81.50
2024-03-15T20:05:31.893Z,81.83
2024-03-15T20:08:00.319Z,81.71
2024-03-15T20:10:33.173Z,81.71
2024-03-15T20:13:01.450Z,82.01
2024-03-15T20:15:29.438Z,81.85
2024-03-15T20:17:57.492Z,81.92
2024-03-15T20:20:25.439Z,81.93
2024-03-15T20:22:53.415Z,82.19
2024-03-15T20:25:21.564Z,82.01
2024-03-15T20:27:49.697Z,82.13
2024-03-15T20:30:18.075Z,82.26
2024-03-15T20:32:46.065Z,82.50
2024-03-15T20:35:14.010Z,82.75
2024-03-15T20:37:41.989Z,82.48
2024-03-15T20:40:10.012Z,82.58
2024-03-15T20:42:38.209Z,82.93
2024-03-15T20:45:06.429Z,82.93
2024-03-15T20:47:34.404Z,83.01
2024-03-15T20:50:02.312Z,83.22
2024-03-15T20:52:32.878Z,83.20
2024-03-15T20:55:00.926Z,83.31
2024-03-15T20:57:29.158Z,83.17
2024-03-15T20:59:57.097Z,83.53
2024-03-15T21:02:25.067Z,83.29
2024-03-15T21:04:54.558Z,83.41
2024-03-15T21:07:23.952Z,83.50
2024-03-15T21:09:52.069Z,83.68
2024-03-15T21:12:19.014Z,83.81
2024-03-15T21:14:47.066Z,83.75
2024-03-15T21:17:16.475Z,83.84
2024-03-15T21:19:44.736Z,84.03
2024-03-15T21:22:14.882Z,84.27
2024-03-15T21:24:43.624Z,84.07
2024-03-15T21:27:14.676Z,84.35
2024-03-15T21:29:42.639Z,84.39
2024-03-15T21:32:10.585Z,84.43
2024-03-15T21:34:38.514Z,84.42
2024-03-15T21:37:06.873Z,84.27
2024-03-15T21:39:34.838Z,84.72
2024-03-15T21:42:02.844Z,84.67
2024-03-15T21:44:31.710Z,84.60
2024-03-15T21:46:59.637Z,84.98
2024-03-15T21:49:27.554Z,84.75
2024-03-15T21:51:56.595Z,85.09
2024-03-15T21:54:26.453Z,85.14
2024-03-15T21:56:54.615Z,85.22
2024-03-15T21:59:23.339Z,84.98
2024-03-15T22:01:53.041Z,85.13
2024-03-15T22:04:22.221Z,85.50
2024-03-15T22:06:50.227Z,85.49
2024-03-15T22:09:21.842Z,85.34
2024-03-15T22:11:51.315Z,85.30
2024-03-15T22:14:19.276Z,85.54
2024-03-15T22:16:47.259Z,85.60
2024-03-15T22:19:15.365Z,85.76
2024-03-15T22:21:43.471Z,85.84
2024-03-15T22:24:11.484Z,85.86
2024-03-15T22:26:39.439Z,85.76
2024-03-15T22:29:10.223Z,86.02
2024-03-15T22:31:38.217Z,85.98
2024-03-15T22:34:06.590Z,86.10
2024-03-15T22:36:34.694Z,86.16
2024-03-15T22:39:03.686Z,86.11
2024-03-15T22:41:31.688Z,86.29
2024-03-15T22:43:59.746Z,86.29
2024-03-15T22:46:27.803Z,86.30
2024-03-15T22:48:55.883Z,86.47
2024-03-15T22:51:24.061Z,86.49
2024-03-15T22:53:52.135Z,86.66
2024-03-15T22:56:20.115Z,86.69
2024-03-15T22:58:48.103Z,86.79
2024-03-15T23:01:17.605Z,86.90
2024-03-15T23:06:33.808Z,86.94
2024-03-15T23:09:02.589Z,87.20
2024-03-15T23:11:30.984Z,87.42
2024-03-15T23:13:59.179Z,86.99
2024-03-15T23:16:27.225Z,87.09
2024-03-15T23:18:55.248Z,87.27
2024-03-15T23:21:23.331Z,87.26
2024-03-15T23:23:51.641Z,87.19
2024-03-15T23:26:19.694Z,87.47
2024-03-15T23:28:51.982Z,87.34
2024-03-15T23:31:20.069Z,87.58
2024-03-15T23:33:48.024Z,87.52
2024-03-15T23:36:15.976Z,87.62
2024-03-15T23:38:44.286Z,87.68
2024-03-15T23:41:12.281Z,87.68
2024-03-15T23:43:40.208Z,87.89
2024-03-15T23:46:08.589Z,87.93
2024-03-15T23:48:39.202Z,87.87
2024-03-15T23:51:07.491Z,87.93
2024-03-15T23:53:35.444Z,88.12
2024-03-15T23:56:03.599Z,88.05
2024-03-15T23:58:33.083Z,87.99
